Hauptseite
METAR-TAF:

METAR-TAF

Flughäfen :

Bohrplattform

A12-cpp, Niederlande

Breite: 55-23-57N, Länge: 3-48-37E, Höhe: 33 m

Beobachtung

Neuester Wetterbericht von vor 22 Minuten, um 02:55 UTC
Wind 16 kt aus Nord
Temperatur 6°C
Luftfeuchtigkeit 87%
Luftdruck 1032 hPa
Sichtweite 10 km oder mehr

METAR: EHAK 150255Z AUTO 36016KT 9999 BKN049/// 06/04 Q1032

Zeit: 05:17 (03:17 UTC)


TAF: fehlend

Wetterbeobachtungen und Prognosen von mehr als 4000 Flughäfen (METAR und TAF Bericht).

Die verfügbaren Stationen werden durch gelbe und rote Markierungen auf der Karte dargestellt.

Führen Sie die Maus auf sie, um den Namen der Station zu sehen.

Darauf klicken, um die Beobachtung von Wetterbeobachtungen und Prognosen zu sehen.

Um die Karte zu ändern : klicken Sie auf den grünen Tasten mit einem schwarzen Kreuz Zum Vergrößern, auf den grünen Button mit einem Gedankenstrich zu verkleinern, oder auf die grünen Pfeile für benachbarte Karten.


METAR-TAF: